Time;durP1;ratioP1;P1;durP2;ratioP2;P2;SDS_P1;SDS_P2;PMS_P1;PMS_P2;Temp;Humidity;BMP_temperature;BMP_pressure;BME280_temperature;BME280_humidity;BME280_pressure;Samples;Min_cycle;Max_cycle;Signal;HPM_P1;HPM_P2
2023/04/12 00:01:05;;;;;;;0.70;0.70;;;;;7.20;95482.00;;;;5053099;28;20192;-62
2023/04/12 00:03:33;;;;;;;1.00;1.00;;;;;7.20;95474.00;;;;5053317;28;20192;-62
2023/04/12 00:06:02;;;;;;;0.90;0.90;;;;;7.00;95482.00;;;;5052853;28;20239;-62
2023/04/12 00:08:34;;;;;;;0.93;0.93;;;;;7.10;95471.00;;;;5053340;28;20196;-62
2023/04/12 00:11:03;;;;;;;0.70;0.70;;;;;7.20;95466.00;;;;5035156;28;20619;-62
2023/04/12 00:13:30;;;;;;;0.80;0.80;;;;;7.20;95462.00;;;;5052944;28;20249;-62
2023/04/12 00:15:58;;;;;;;1.60;1.50;;;;;7.40;95462.00;;;;5035855;28;20207;-61
2023/04/12 00:18:26;;;;;;;0.60;0.60;;;;;7.20;95468.00;;;;5052851;28;20203;-62
2023/04/12 00:20:55;;;;;;;0.60;0.60;;;;;7.10;95461.00;;;;5053024;28;20279;-61
2023/04/12 00:23:22;;;;;;;0.77;0.77;;;;;7.10;95459.00;;;;5053208;28;20554;-62
2023/04/12 00:25:49;;;;;;;0.70;0.70;;;;;7.00;95449.00;;;;5052741;28;20266;-62
2023/04/12 00:28:18;;;;;;;0.90;0.90;;;;;7.00;95441.00;;;;5035093;28;20813;-61
2023/04/12 00:30:45;;;;;;;0.90;0.90;;;;;7.00;95437.00;;;;5052987;28;20199;-62
2023/04/12 00:33:13;;;;;;;0.70;0.70;;;;;7.10;95431.00;;;;5034798;28;20655;-62
2023/04/12 00:35:40;;;;;;;1.37;1.27;;;;;7.00;95429.00;;;;5052667;28;20184;-62
2023/04/12 00:38:09;;;;;;;0.70;0.70;;;;;7.00;95421.00;;;;5052710;28;20216;-61
2023/04/12 00:40:37;;;;;;;0.67;0.67;;;;;7.00;95420.00;;;;5052715;28;20231;-62
2023/04/12 00:43:04;;;;;;;2.00;1.90;;;;;6.90;95420.00;;;;5034693;28;20294;-62
2023/04/12 00:45:33;;;;;;;0.70;0.70;;;;;7.10;95419.00;;;;5052734;28;20224;-62
2023/04/12 00:48:01;;;;;;;1.33;1.33;;;;;7.00;95412.00;;;;5052468;28;20219;-61
2023/04/12 00:50:28;;;;;;;0.70;0.70;;;;;6.90;95411.00;;;;5052655;28;20246;-61
2023/04/12 00:52:57;;;;;;;0.70;0.70;;;;;6.90;95407.00;;;;5052581;28;20196;-62
2023/04/12 00:55:25;;;;;;;0.70;0.70;;;;;6.80;95413.00;;;;5034711;28;20298;-62
2023/04/12 00:57:52;;;;;;;1.13;1.13;;;;;7.00;95402.00;;;;5052987;28;20212;-62
2023/04/12 01:00:20;;;;;;;0.73;0.73;;;;;6.90;95403.00;;;;5034611;28;20682;-62
2023/04/12 01:02:49;;;;;;;1.37;1.37;;;;;6.90;95396.00;;;;5052779;28;20196;-61
2023/04/12 01:05:21;;;;;;;0.67;0.67;;;;;6.80;95398.00;;;;5034501;28;20670;-61
2023/04/12 01:07:55;;;;;;;0.87;0.87;;;;;6.80;95397.00;;;;5052587;28;20216;-61
2023/04/12 01:10:33;;;;;;;0.50;0.50;;;;;7.00;95389.00;;;;5052458;28;20176;-61
2023/04/12 01:13:11;;;;;;;2.27;1.33;;;;;6.90;95386.00;;;;5053985;28;20183;-61
2023/04/12 01:15:47;;;;;;;1.13;1.03;;;;;6.90;95385.00;;;;5056305;28;20191;-62
2023/04/12 01:18:19;;;;;;;0.60;0.60;;;;;6.90;95372.00;;;;5056204;28;20216;-62
2023/04/12 01:20:56;;;;;;;0.60;0.60;;;;;6.80;95363.00;;;;5056500;28;20181;-62
2023/04/12 01:23:44;;;;;;;0.53;0.53;;;;;6.80;95362.00;;;;5056667;28;20188;-61
2023/04/12 01:26:33;;;;;;;0.90;0.90;;;;;6.80;95352.00;;;;5056250;28;20216;-61
2023/04/12 01:29:04;;;;;;;0.53;0.53;;;;;6.90;95353.00;;;;5056302;28;20191;-61
2023/04/12 01:31:32;;;;;;;0.60;0.60;;;;;6.80;95345.00;;;;5056466;28;20191;-62
2023/04/12 01:34:01;;;;;;;2.00;0.87;;;;;6.80;95347.00;;;;5055878;28;20192;-62
2023/04/12 01:36:30;;;;;;;0.60;0.60;;;;;6.70;95338.00;;;;5055752;28;20278;-62
2023/04/12 01:38:58;;;;;;;1.27;1.27;;;;;6.80;95337.00;;;;5055805;28;20198;-61
2023/04/12 01:41:26;;;;;;;2.53;1.00;;;;;6.80;95336.00;;;;5055805;28;20196;-62
2023/04/12 01:43:53;;;;;;;0.90;0.90;;;;;6.80;95321.00;;;;5055916;28;20671;-62
2023/04/12 01:46:23;;;;;;;0.60;0.60;;;;;6.80;95320.00;;;;5055414;28;20231;-62
2023/04/12 01:48:53;;;;;;;0.57;0.57;;;;;6.70;95326.00;;;;5055696;28;20180;-62
2023/04/12 01:51:32;;;;;;;1.00;1.00;;;;;6.70;95312.00;;;;5055612;28;20203;-62
2023/04/12 01:54:09;;;;;;;0.70;0.70;;;;;6.70;95318.00;;;;5055522;28;20194;-62
2023/04/12 01:56:39;;;;;;;0.63;0.63;;;;;6.70;95310.00;;;;5055508;28;20261;-62
2023/04/12 01:59:07;;;;;;;0.67;0.67;;;;;6.80;95306.00;;;;5056236;28;20207;-62
2023/04/12 02:01:36;;;;;;;0.70;0.70;;;;;6.90;95301.00;;;;5055443;28;20659;-62
2023/04/12 02:04:05;;;;;;;1.20;1.17;;;;;6.70;95293.00;;;;5055385;28;20246;-62
2023/04/12 02:06:34;;;;;;;0.60;0.60;;;;;6.70;95293.00;;;;5055151;28;20220;-63
2023/04/12 02:09:04;;;;;;;0.60;0.60;;;;;6.80;95284.00;;;;5055533;28;20188;-62
2023/04/12 02:11:31;;;;;;;2.30;1.37;;;;;6.80;95278.00;;;;5055230;28;20228;-62
2023/04/12 02:13:59;;;;;;;1.53;1.43;;;;;6.80;95279.00;;;;5055088;28;20210;-62
2023/04/12 02:16:28;;;;;;;0.70;0.70;;;;;6.70;95277.00;;;;5055374;28;20567;-62
2023/04/12 02:18:57;;;;;;;2.37;1.67;;;;;6.60;95267.00;;;;5055121;28;20195;-62
2023/04/12 02:21:26;;;;;;;1.27;1.27;;;;;6.70;95264.00;;;;5055508;28;20200;-63
2023/04/12 02:23:53;;;;;;;0.77;0.77;;;;;6.70;95259.00;;;;5054696;28;20196;-62
2023/04/12 02:26:22;;;;;;;0.57;0.57;;;;;6.70;95251.00;;;;5036330;28;20702;-62
2023/04/12 02:28:51;;;;;;;0.70;0.70;;;;;6.70;95251.00;;;;5055954;28;20207;-62
2023/04/12 02:31:18;;;;;;;0.60;0.60;;;;;6.80;95244.00;;;;5054866;28;20196;-62
2023/04/12 02:33:46;;;;;;;0.63;0.63;;;;;6.70;95249.00;;;;5054835;28;20211;-62
2023/04/12 02:36:14;;;;;;;1.33;0.97;;;;;6.70;95233.00;;;;5036838;28;20192;-62
2023/04/12 02:38:42;;;;;;;0.70;0.70;;;;;6.60;95240.00;;;;5054739;28;20196;-62
2023/04/12 02:41:09;;;;;;;0.83;0.83;;;;;6.70;95237.00;;;;5055239;28;20278;-61
2023/04/12 02:43:36;;;;;;;0.60;0.60;;;;;6.80;95229.00;;;;5054881;28;20192;-62
2023/04/12 02:46:04;;;;;;;0.60;0.60;;;;;6.70;95216.00;;;;5054761;28;20674;-62
2023/04/12 02:48:31;;;;;;;0.50;0.50;;;;;6.80;95208.00;;;;5054328;28;20590;-61
2023/04/12 02:50:58;;;;;;;0.70;0.70;;;;;6.70;95198.00;;;;5054775;28;20524;-61
2023/04/12 02:53:27;;;;;;;0.80;0.80;;;;;6.60;95193.00;;;;5054689;28;20196;-62
2023/04/12 02:55:56;;;;;;;0.70;0.70;;;;;6.60;95187.00;;;;5054419;28;20192;-62
2023/04/12 02:58:23;;;;;;;1.10;1.10;;;;;6.60;95183.00;;;;5054301;28;20208;-62
2023/04/12 03:00:51;;;;;;;1.17;1.03;;;;;6.70;95181.00;;;;5036419;28;20724;-62
2023/04/12 03:03:18;;;;;;;0.90;0.90;;;;;6.70;95178.00;;;;5054229;28;20195;-62
2023/04/12 03:05:46;;;;;;;0.70;0.70;;;;;6.70;95166.00;;;;5054091;28;20212;-61
2023/04/12 03:08:13;;;;;;;0.60;0.60;;;;;6.70;95165.00;;;;5054127;28;20238;-61
2023/04/12 03:10:42;;;;;;;0.73;0.73;;;;;6.60;95131.00;;;;5054665;28;20219;-62
2023/04/12 03:13:10;;;;;;;0.77;0.77;;;;;6.60;95159.00;;;;5054010;28;20196;-62
2023/04/12 03:15:37;;;;;;;0.67;0.67;;;;;6.60;95161.00;;;;5054315;28;20279;-62
2023/04/12 03:18:04;;;;;;;0.70;0.70;;;;;6.70;95144.00;;;;5053938;28;20274;-62
2023/04/12 03:20:32;;;;;;;0.70;0.70;;;;;6.80;95155.00;;;;5054241;28;20191;-62
2023/04/12 03:23:00;;;;;;;0.87;0.87;;;;;6.70;95140.00;;;;5054346;28;20640;-62
2023/04/12 03:25:27;;;;;;;0.70;0.70;;;;;6.70;95128.00;;;;5053754;28;20291;-62
2023/04/12 03:27:56;;;;;;;1.13;1.13;;;;;6.60;95130.00;;;;5053704;28;20219;-62
2023/04/12 03:30:23;;;;;;;1.03;1.03;;;;;6.70;95132.00;;;;5053736;28;20200;-62
2023/04/12 03:32:51;;;;;;;1.07;1.07;;;;;6.70;95126.00;;;;5054221;28;20188;-62
2023/04/12 03:35:18;;;;;;;0.93;0.93;;;;;6.70;95116.00;;;;5053440;28;20207;-62
2023/04/12 03:37:45;;;;;;;0.60;0.60;;;;;6.60;95119.00;;;;5053508;28;20211;-62
2023/04/12 03:40:13;;;;;;;1.10;1.10;;;;;6.80;95125.00;;;;5053770;28;20203;-62
2023/04/12 03:42:41;;;;;;;0.83;0.83;;;;;6.70;95113.00;;;;5053539;28;20195;-62
2023/04/12 03:45:11;;;;;;;0.73;0.73;;;;;6.70;95101.00;;;;5053428;28;20249;-62
2023/04/12 03:47:38;;;;;;;0.93;0.93;;;;;6.70;95104.00;;;;5053179;28;20253;-62
2023/04/12 03:50:09;;;;;;;0.70;0.70;;;;;6.50;95093.00;;;;5053364;28;20253;-62
2023/04/12 03:52:36;;;;;;;0.80;0.80;;;;;6.70;95094.00;;;;5053325;28;20185;-62
2023/04/12 03:55:06;;;;;;;1.70;1.37;;;;;6.60;95085.00;;;;5053561;28;20195;-62
2023/04/12 03:57:33;;;;;;;0.90;0.90;;;;;6.60;95079.00;;;;5053388;28;20207;-62
2023/04/12 04:00:01;;;;;;;1.43;1.13;;;;;6.60;95086.00;;;;5053286;28;20196;-62
2023/04/12 04:02:30;;;;;;;2.03;1.60;;;;;6.70;95070.00;;;;5053460;28;20248;-62
2023/04/12 04:04:57;;;;;;;0.87;0.87;;;;;6.70;95066.00;;;;5053194;28;20219;-62
2023/04/12 04:07:25;;;;;;;0.70;0.70;;;;;6.70;95064.00;;;;5052994;28;20219;-62
2023/04/12 04:09:53;;;;;;;0.70;0.70;;;;;6.70;95063.00;;;;5053134;28;20206;-62
2023/04/12 04:12:21;;;;;;;1.73;1.23;;;;;6.70;95057.00;;;;5053286;28;20196;-62
2023/04/12 04:14:48;;;;;;;0.80;0.80;;;;;6.60;95057.00;;;;5052978;28;20203;-62
2023/04/12 04:17:15;;;;;;;0.93;0.93;;;;;6.70;95054.00;;;;5052882;28;20215;-62
2023/04/12 04:19:44;;;;;;;0.70;0.70;;;;;6.70;95050.00;;;;5053014;28;20253;-62
2023/04/12 04:22:12;;;;;;;0.60;0.60;;;;;6.70;95042.00;;;;5035030;28;20202;-62
2023/04/12 04:24:40;;;;;;;0.60;0.60;;;;;6.80;95045.00;;;;5052940;28;20203;-62
2023/04/12 04:27:07;;;;;;;0.60;0.60;;;;;6.70;95042.00;;;;5052946;28;20637;-62
2023/04/12 04:29:35;;;;;;;0.90;0.90;;;;;6.80;95031.00;;;;5052795;28;20196;-62
2023/04/12 04:32:03;;;;;;;0.70;0.70;;;;;6.80;95032.00;;;;5052952;28;20245;-62
2023/04/12 04:34:30;;;;;;;0.70;0.70;;;;;6.70;95030.00;;;;5052700;28;20202;-62
2023/04/12 04:36:59;;;;;;;0.60;0.60;;;;;6.60;95020.00;;;;5034793;28;20776;-62
2023/04/12 04:39:27;;;;;;;1.20;1.20;;;;;6.60;95019.00;;;;5052697;28;20196;-62
2023/04/12 04:41:54;;;;;;;0.60;0.60;;;;;6.60;95016.00;;;;5052904;28;20651;-62
2023/04/12 04:44:21;;;;;;;0.60;0.60;;;;;6.60;95003.00;;;;5052629;28;20196;-62
2023/04/12 04:46:50;;;;;;;1.13;1.13;;;;;6.60;95000.00;;;;5052502;28;20598;-62
2023/04/12 04:49:17;;;;;;;0.50;0.50;;;;;6.70;95004.00;;;;5056053;28;20207;-62
2023/04/12 04:51:45;;;;;;;1.17;1.17;;;;;6.70;95003.00;;;;5056731;28;20188;-62
2023/04/12 04:54:15;;;;;;;3.10;0.87;;;;;6.70;95002.00;;;;5056672;28;20605;-62
2023/04/12 04:56:42;;;;;;;0.70;0.70;;;;;6.60;95005.00;;;;5056598;28;20239;-62
2023/04/12 04:59:10;;;;;;;0.70;0.70;;;;;6.50;95001.00;;;;5056648;28;20655;-62
2023/04/12 05:01:37;;;;;;;0.60;0.60;;;;;6.60;95009.00;;;;5056853;28;20651;-62
2023/04/12 05:04:05;;;;;;;0.60;0.60;;;;;6.70;95004.00;;;;5056548;28;20203;-62
2023/04/12 05:06:32;;;;;;;0.60;0.60;;;;;6.80;95001.00;;;;5056771;28;20219;-62
2023/04/12 05:09:00;;;;;;;1.17;1.17;;;;;6.80;95000.00;;;;5056627;28;20202;-62
2023/04/12 05:11:29;;;;;;;0.80;0.80;;;;;6.70;94997.00;;;;5056408;28;20202;-62
2023/04/12 05:13:56;;;;;;;0.70;0.70;;;;;6.70;94996.00;;;;5056378;28;20191;-62
2023/04/12 05:16:23;;;;;;;1.13;1.13;;;;;6.70;94994.00;;;;5056518;28;20539;-62
2023/04/12 05:18:51;;;;;;;0.50;0.50;;;;;6.90;94997.00;;;;5056357;28;20271;-62
2023/04/12 05:21:18;;;;;;;0.80;0.80;;;;;7.00;95000.00;;;;5056496;28;20207;-62
2023/04/12 05:23:47;;;;;;;0.80;0.80;;;;;6.80;94988.00;;;;5056001;28;20726;-62
2023/04/12 05:26:14;;;;;;;0.60;0.60;;;;;6.80;94990.00;;;;5055983;28;20300;-61
2023/04/12 05:28:43;;;;;;;0.50;0.50;;;;;6.70;94988.00;;;;5056294;28;20616;-61
2023/04/12 05:31:10;;;;;;;0.60;0.60;;;;;7.00;94986.00;;;;5056276;28;20681;-61
2023/04/12 05:33:38;;;;;;;0.70;0.70;;;;;6.90;94975.00;;;;5056087;28;20245;-61
2023/04/12 05:36:06;;;;;;;0.90;0.90;;;;;6.80;94966.00;;;;5055841;28;20205;-62
2023/04/12 05:38:34;;;;;;;0.60;0.60;;;;;6.70;94959.00;;;;5055941;28;20196;-61
2023/04/12 05:41:03;;;;;;;1.33;1.23;;;;;6.90;94955.00;;;;5055827;28;20192;-61
2023/04/12 05:43:30;;;;;;;0.83;0.83;;;;;6.80;94947.00;;;;5056013;28;20188;-61
2023/04/12 05:45:59;;;;;;;0.50;0.50;;;;;6.80;94935.00;;;;5055731;28;20211;-61
2023/04/12 05:48:26;;;;;;;0.70;0.70;;;;;6.90;94929.00;;;;5055695;28;20196;-61
2023/04/12 05:50:54;;;;;;;0.70;0.70;;;;;6.90;94927.00;;;;5056393;28;20206;-61
2023/04/12 05:53:22;;;;;;;0.90;0.90;;;;;6.90;94914.00;;;;5055976;28;20207;-61
2023/04/12 05:55:50;;;;;;;1.10;1.10;;;;;6.90;94917.00;;;;5056561;28;20589;-61
2023/04/12 05:58:17;;;;;;;0.63;0.63;;;;;7.00;94911.00;;;;5056236;28;20287;-61
2023/04/12 06:00:45;;;;;;;0.50;0.50;;;;;7.20;94920.00;;;;5055844;28;20655;-61
2023/04/12 06:03:14;;;;;;;0.70;0.70;;;;;7.10;94905.00;;;;5055431;28;20196;-61
2023/04/12 06:05:41;;;;;;;0.70;0.70;;;;;7.00;94900.00;;;;5037838;28;20675;-61
2023/04/12 06:08:09;;;;;;;0.60;0.60;;;;;7.00;94904.00;;;;5055208;28;20223;-61
2023/04/12 06:10:36;;;;;;;0.83;0.83;;;;;7.20;94906.00;;;;5055614;28;20231;-61
2023/04/12 06:13:03;;;;;;;0.80;0.80;;;;;7.20;94906.00;;;;5055308;28;20190;-61
2023/04/12 06:15:32;;;;;;;0.80;0.80;;;;;7.30;94902.00;;;;5055504;28;20535;-61
2023/04/12 06:18:00;;;;;;;0.73;0.73;;;;;7.20;94895.00;;;;5055075;28;20204;-61
2023/04/12 06:20:28;;;;;;;0.80;0.80;;;;;7.40;94893.00;;;;5055633;28;20294;-62
2023/04/12 06:22:56;;;;;;;0.80;0.80;;;;;7.30;94892.00;;;;5055074;28;20199;-62
2023/04/12 06:25:23;;;;;;;1.03;1.00;;;;;7.40;94889.00;;;;5055043;28;20191;-61
2023/04/12 06:27:51;;;;;;;1.07;0.97;;;;;7.40;94884.00;;;;5054770;28;20220;-62
2023/04/12 06:30:19;;;;;;;0.90;0.90;;;;;7.40;94877.00;;;;5055158;28;20685;-62
2023/04/12 06:32:47;;;;;;;0.73;0.73;;;;;7.40;94870.00;;;;5055560;28;20196;-62
2023/04/12 06:35:15;;;;;;;0.60;0.60;;;;;7.30;94865.00;;;;5051980;28;20265;-64
2023/04/12 06:37:44;;;;;;;1.50;1.23;;;;;7.40;94868.00;;;;5052439;28;20269;-64
2023/04/12 06:40:13;;;;;;;0.70;0.70;;;;;7.40;94860.00;;;;5053433;28;20224;-64
2023/04/12 06:42:40;;;;;;;0.80;0.80;;;;;7.40;94854.00;;;;5053207;28;20195;-65
2023/04/12 06:45:08;;;;;;;0.90;0.90;;;;;7.40;94851.00;;;;5053014;28;20233;-65
2023/04/12 06:47:36;;;;;;;0.70;0.70;;;;;7.40;94846.00;;;;5051465;28;20627;-63
2023/04/12 06:50:05;;;;;;;0.80;0.80;;;;;7.50;94844.00;;;;5050653;28;20196;-63
2023/04/12 06:52:33;;;;;;;0.70;0.70;;;;;7.50;94836.00;;;;5052821;28;20344;-63
2023/04/12 06:55:02;;;;;;;0.80;0.80;;;;;7.70;94830.00;;;;5052780;28;20206;-63
2023/04/12 06:57:29;;;;;;;0.60;0.60;;;;;7.80;94832.00;;;;5052687;28;20223;-63
2023/04/12 06:59:57;;;;;;;0.60;0.60;;;;;7.80;94829.00;;;;5052914;28;20570;-63
2023/04/12 07:02:24;;;;;;;1.37;1.27;;;;;7.80;94824.00;;;;5052671;28;20210;-63
2023/04/12 07:04:53;;;;;;;0.60;0.60;;;;;7.60;94828.00;;;;5052922;28;20200;-63
2023/04/12 07:07:20;;;;;;;0.70;0.70;;;;;7.70;94818.00;;;;5052522;28;20215;-62
2023/04/12 07:09:48;;;;;;;0.60;0.60;;;;;7.80;94829.00;;;;5052447;28;20203;-63
2023/04/12 07:12:16;;;;;;;0.70;0.70;;;;;7.80;94821.00;;;;5052006;28;20203;-63
2023/04/12 07:14:44;;;;;;;0.80;0.80;;;;;7.80;94811.00;;;;5052439;28;20204;-63
2023/04/12 07:17:11;;;;;;;0.50;0.50;;;;;7.90;94798.00;;;;5052321;28;20212;-63
2023/04/12 07:19:39;;;;;;;0.60;0.60;;;;;7.80;94794.00;;;;5034394;28;20664;-63
2023/04/12 07:22:07;;;;;;;0.83;0.83;;;;;7.90;94786.00;;;;5052329;28;20191;-63
2023/04/12 07:24:34;;;;;;;0.87;0.87;;;;;8.20;94778.00;;;;5052326;28;20200;-63
2023/04/12 07:27:02;;;;;;;0.83;0.83;;;;;8.20;94753.00;;;;5052038;28;20228;-62
2023/04/12 07:29:31;;;;;;;0.80;0.80;;;;;8.20;94743.00;;;;5052211;28;20206;-63
2023/04/12 07:31:59;;;;;;;0.60;0.60;;;;;8.00;94747.00;;;;5052229;28;20192;-62
2023/04/12 07:34:27;;;;;;;0.50;0.50;;;;;8.30;94737.00;;;;5052079;28;20203;-62
2023/04/12 07:36:54;;;;;;;0.60;0.60;;;;;8.20;94726.00;;;;5052155;28;20219;-63
2023/04/12 07:39:22;;;;;;;0.60;0.60;;;;;8.30;94728.00;;;;5034093;28;20203;-63
2023/04/12 07:41:50;;;;;;;0.60;0.60;;;;;8.30;94726.00;;;;5050838;28;20216;-63
2023/04/12 07:44:18;;;;;;;1.27;1.27;;;;;8.50;94721.00;;;;5052127;28;20607;-63
2023/04/12 07:46:46;;;;;;;0.80;0.80;;;;;8.30;94722.00;;;;5051708;28;20224;-63
2023/04/12 07:49:14;;;;;;;0.53;0.53;;;;;8.50;94723.00;;;;5052011;28;20180;-63
2023/04/12 07:51:42;;;;;;;0.80;0.80;;;;;8.50;94711.00;;;;5051857;28;20207;-63
2023/04/12 07:54:10;;;;;;;1.23;1.13;;;;;8.40;94721.00;;;;5033927;28;20219;-63
2023/04/12 07:56:37;;;;;;;0.60;0.60;;;;;8.40;94717.00;;;;5051803;28;20238;-63
2023/04/12 07:59:05;;;;;;;1.00;1.00;;;;;8.40;94717.00;;;;5051704;28;20295;-63
2023/04/12 08:01:32;;;;;;;0.60;0.60;;;;;8.60;94718.00;;;;5051774;28;20192;-62
2023/04/12 08:04:01;;;;;;;0.80;0.80;;;;;8.60;94713.00;;;;5052018;28;20200;-63
2023/04/12 08:06:30;;;;;;;0.70;0.70;;;;;8.70;94708.00;;;;5033963;28;20220;-64
2023/04/12 08:08:57;;;;;;;0.60;0.60;;;;;8.60;94713.00;;;;5046890;28;20321;-63
2023/04/12 08:11:25;;;;;;;0.60;0.60;;;;;8.80;94709.00;;;;5051695;28;20536;-63
2023/04/12 08:13:52;;;;;;;0.83;0.83;;;;;8.90;94714.00;;;;5051289;28;20203;-63
2023/04/12 08:16:19;;;;;;;0.70;0.70;;;;;9.10;94711.00;;;;5051303;28;20731;-62
2023/04/12 08:18:47;;;;;;;0.80;0.80;;;;;9.00;94702.00;;;;5051283;28;20192;-62
2023/04/12 08:21:15;;;;;;;1.13;0.90;;;;;9.10;94732.00;;;;5051211;28;20192;-64
2023/04/12 08:23:43;;;;;;;0.77;0.77;;;;;9.10;94709.00;;;;5049013;28;20223;-62
2023/04/12 08:26:10;;;;;;;0.70;0.70;;;;;9.10;94710.00;;;;5051012;28;20196;-63
2023/04/12 08:28:38;;;;;;;1.50;1.43;;;;;9.20;94715.00;;;;5051302;28;20552;-62
2023/04/12 08:31:06;;;;;;;0.60;0.60;;;;;9.30;94721.00;;;;5051442;28;20214;-62
2023/04/12 08:33:33;;;;;;;0.50;0.50;;;;;9.30;94721.00;;;;5050684;28;20701;-62
2023/04/12 08:36:01;;;;;;;0.70;0.70;;;;;9.40;94696.00;;;;5033141;28;20204;-63
2023/04/12 08:38:30;;;;;;;0.60;0.60;;;;;9.50;94704.00;;;;5050712;28;20196;-62
2023/04/12 08:40:58;;;;;;;0.77;0.77;;;;;9.50;94701.00;;;;5033430;28;20577;-62
2023/04/12 08:43:28;;;;;;;0.80;0.80;;;;;9.60;94710.00;;;;5050964;28;20218;-63
2023/04/12 08:45:56;;;;;;;0.60;0.60;;;;;9.40;94707.00;;;;5051107;28;20200;-64
2023/04/12 08:48:24;;;;;;;1.43;1.33;;;;;9.50;94710.00;;;;5050609;28;20290;-63
2023/04/12 08:50:53;;;;;;;0.53;0.53;;;;;9.30;94709.00;;;;5050632;28;20203;-62
2023/04/12 08:53:20;;;;;;;0.57;0.57;;;;;9.40;94704.00;;;;5051016;28;20200;-63
2023/04/12 08:55:49;;;;;;;0.50;0.50;;;;;9.30;94697.00;;;;5050927;28;20204;-63
2023/04/12 08:58:16;;;;;;;0.70;0.70;;;;;9.40;94698.00;;;;5050924;28;20215;-63
2023/04/12 09:00:45;;;;;;;1.13;1.00;;;;;9.50;94689.00;;;;5050978;28;20210;-63
2023/04/12 09:03:12;;;;;;;0.90;0.90;;;;;9.70;94680.00;;;;5050900;28;20322;-63
2023/04/12 09:05:40;;;;;;;0.80;0.80;;;;;9.40;94698.00;;;;5050826;28;20212;-63
2023/04/12 09:08:07;;;;;;;0.70;0.70;;;;;9.60;94684.00;;;;5050744;28;20228;-63
2023/04/12 09:10:37;;;;;;;1.93;1.83;;;;;9.70;94679.00;;;;5050827;28;20203;-63
2023/04/12 09:13:06;;;;;;;1.13;1.13;;;;;9.80;94682.00;;;;5050940;28;20196;-63
2023/04/12 09:15:34;;;;;;;0.60;0.60;;;;;10.00;94679.00;;;;5050691;28;20200;-63
2023/04/12 09:18:06;;;;;;;0.83;0.83;;;;;10.00;94684.00;;;;5050701;28;20227;-62
2023/04/12 09:20:35;;;;;;;0.87;0.87;;;;;10.10;94697.00;;;;5050822;28;20235;-62
2023/04/12 09:23:16;;;;;;;0.70;0.70;;;;;10.20;94679.00;;;;5050935;28;20203;-62
2023/04/12 09:25:47;;;;;;;0.60;0.60;;;;;10.00;94692.00;;;;5050793;28;20644;-63
2023/04/12 09:28:36;;;;;;;0.63;0.63;;;;;9.60;94680.00;;;;5050635;28;20719;-63
2023/04/12 09:31:04;;;;;;;0.70;0.70;;;;;9.70;94680.00;;;;5046272;28;20608;-62
2023/04/12 09:33:36;;;;;;;0.77;0.77;;;;;10.00;94680.00;;;;5050849;28;20223;-62
2023/04/12 09:36:08;;;;;;;0.83;0.83;;;;;9.90;94679.00;;;;5054210;28;20200;-63
2023/04/12 09:38:36;;;;;;;0.70;0.70;;;;;10.00;94663.00;;;;5036500;28;20196;-63
2023/04/12 09:41:17;;;;;;;0.70;0.70;;;;;9.90;94658.00;;;;5054384;28;20211;-62
2023/04/12 09:43:46;;;;;;;1.17;1.07;;;;;10.20;94658.00;;;;5054038;28;20191;-62
2023/04/12 09:46:15;;;;;;;0.80;0.80;;;;;10.30;94655.00;;;;5054120;28;20196;-63
2023/04/12 09:48:48;;;;;;;0.60;0.60;;;;;9.90;94661.00;;;;5054184;28;20208;-63
2023/04/12 09:51:27;;;;;;;0.80;0.80;;;;;10.00;94658.00;;;;5053985;28;20187;-63
2023/04/12 09:53:58;;;;;;;0.50;0.50;;;;;9.80;94679.00;;;;5054025;28;20184;-63
2023/04/12 09:56:27;;;;;;;1.17;0.80;;;;;9.70;94669.00;;;;5053883;28;20228;-62
2023/04/12 09:59:01;;;;;;;0.90;0.90;;;;;9.70;94662.00;;;;5053824;28;20245;-63
2023/04/12 10:01:30;;;;;;;1.53;1.43;;;;;9.80;94641.00;;;;5054036;28;20188;-63
2023/04/12 10:03:58;;;;;;;3.60;0.97;;;;;9.60;94641.00;;;;5053888;28;20880;-63
2023/04/12 10:06:26;;;;;;;0.67;0.67;;;;;9.80;94639.00;;;;5053725;28;20227;-63
2023/04/12 10:08:55;;;;;;;1.27;1.17;;;;;9.30;94644.00;;;;5053891;28;20232;-62
2023/04/12 10:11:24;;;;;;;0.90;0.90;;;;;9.60;94671.00;;;;5053678;28;20200;-63
2023/04/12 10:13:51;;;;;;;0.60;0.60;;;;;9.60;94637.00;;;;5053548;28;20200;-62
2023/04/12 10:16:21;;;;;;;0.73;0.73;;;;;10.10;94638.00;;;;5034530;28;20208;-63
2023/04/12 10:18:51;;;;;;;1.20;1.10;;;;;10.30;94635.00;;;;5053895;28;20199;-63
2023/04/12 10:21:19;;;;;;;0.90;0.90;;;;;9.80;94629.00;;;;5035671;28;20197;-63
2023/04/12 10:23:47;;;;;;;1.47;0.87;;;;;10.20;94624.00;;;;5053434;28;20196;-63
2023/04/12 10:26:16;;;;;;;0.60;0.60;;;;;10.30;94633.00;;;;5053291;28;20288;-63
2023/04/12 10:28:45;;;;;;;0.60;0.60;;;;;10.30;94644.00;;;;5052020;28;20228;-61
2023/04/12 10:31:31;;;;;;;0.70;0.70;;;;;9.80;94630.00;;;;5053337;28;20622;-62
2023/04/12 10:34:01;;;;;;;0.60;0.60;;;;;9.60;94635.00;;;;5053146;28;20258;-61
2023/04/12 10:36:52;;;;;;;0.60;0.60;;;;;9.90;94622.00;;;;5053475;28;20219;-60
2023/04/12 10:39:35;;;;;;;0.80;0.80;;;;;10.00;94620.00;;;;5053424;28;20581;-62
2023/04/12 10:42:23;;;;;;;0.60;0.60;;;;;9.80;94621.00;;;;5053147;28;20200;-61
2023/04/12 10:44:51;;;;;;;0.90;0.90;;;;;10.00;94615.00;;;;5052790;28;20267;-60
2023/04/12 10:47:52;;;;;;;0.70;0.70;;;;;10.20;94601.00;;;;5052098;28;20247;-62
2023/04/12 10:50:25;;;;;;;0.50;0.50;;;;;9.90;94597.00;;;;5052801;28;20192;-61
2023/04/12 10:53:23;;;;;;;0.80;0.80;;;;;10.00;94595.00;;;;5053064;28;20223;-61
2023/04/12 10:55:51;;;;;;;0.53;0.53;;;;;10.50;94592.00;;;;5052683;28;20188;-60
2023/04/12 10:58:57;;;;;;;0.73;0.73;;;;;9.90;94614.00;;;;5052698;28;20258;-61
2023/04/12 11:01:25;;;;;;;0.80;0.80;;;;;10.30;94599.00;;;;5052883;28;20555;-62
2023/04/12 11:04:16;;;;;;;0.93;0.93;;;;;10.40;94595.00;;;;5052565;28;20192;-60
2023/04/12 11:06:49;;;;;;;1.43;1.33;;;;;10.20;94594.00;;;;5052534;28;20703;-61
2023/04/12 11:09:25;;;;;;;0.60;0.60;;;;;10.60;94581.00;;;;5048466;28;20333;-61
2023/04/12 11:11:56;;;;;;;0.57;0.57;;;;;11.00;94595.00;;;;5052284;28;20206;-61
2023/04/12 11:14:30;;;;;;;0.80;0.80;;;;;10.30;94558.00;;;;5034628;28;20648;-62
2023/04/12 11:17:23;;;;;;;0.53;0.53;;;;;10.50;94576.00;;;;5052541;28;20219;-61
2023/04/12 11:19:54;;;;;;;0.80;0.80;;;;;11.10;94549.00;;;;5052211;28;20687;-62
2023/04/12 11:22:24;;;;;;;0.50;0.50;;;;;11.50;94567.00;;;;5051230;28;20310;-62
2023/04/12 11:24:54;;;;;;;1.47;1.37;;;;;11.50;94551.00;;;;5034484;28;20382;-62
2023/04/12 11:27:22;;;;;;;0.60;0.60;;;;;11.50;94559.00;;;;5052312;28;20266;-62
2023/04/12 11:29:51;;;;;;;1.13;0.93;;;;;11.50;94536.00;;;;5052033;28;20219;-62
2023/04/12 11:32:19;;;;;;;2.33;1.27;;;;;11.40;94556.00;;;;5052088;28;20208;-62
2023/04/12 11:34:47;;;;;;;0.60;0.60;;;;;11.50;94569.00;;;;5052097;28;20196;-62
2023/04/12 11:37:14;;;;;;;0.60;0.60;;;;;11.40;94568.00;;;;5033995;28;20232;-62
2023/04/12 11:39:45;;;;;;;0.60;0.60;;;;;11.10;94564.00;;;;5051970;28;20203;-62
2023/04/12 11:42:19;;;;;;;0.67;0.67;;;;;11.00;94557.00;;;;5052249;28;20196;-62
2023/04/12 11:44:47;;;;;;;0.70;0.70;;;;;11.00;94542.00;;;;5052241;28;20558;-62
2023/04/12 11:47:16;;;;;;;0.63;0.63;;;;;11.40;94561.00;;;;5065497;22;20235;-62
2023/04/12 11:49:51;;;;;;;1.90;1.00;;;;;11.10;94549.00;;;;5033695;28;20303;-62
2023/04/12 11:52:20;;;;;;;0.50;0.50;;;;;11.30;94541.00;;;;5050653;28;20200;-62
2023/04/12 11:54:55;;;;;;;1.90;0.90;;;;;11.50;94544.00;;;;5051647;28;20196;-62
2023/04/12 11:57:22;;;;;;;0.87;0.87;;;;;11.30;94557.00;;;;5030458;28;20214;-62
2023/04/12 11:59:50;;;;;;;0.70;0.70;;;;;11.40;94526.00;;;;5033279;28;20207;-62
2023/04/12 12:02:19;;;;;;;0.60;0.60;;;;;11.10;94547.00;;;;5051400;28;20218;-62
2023/04/12 12:04:49;;;;;;;0.70;0.70;;;;;11.40;94539.00;;;;5051473;28;20196;-62
2023/04/12 12:07:17;;;;;;;0.70;0.70;;;;;11.70;94542.00;;;;5051497;28;20695;-62
2023/04/12 12:09:48;;;;;;;0.80;0.80;;;;;11.40;94539.00;;;;5051466;28;20582;-63
2023/04/12 12:12:16;;;;;;;0.70;0.70;;;;;11.40;94524.00;;;;5051363;28;20196;-63
2023/04/12 12:14:46;;;;;;;0.80;0.80;;;;;11.30;94526.00;;;;5051339;28;20209;-63
2023/04/12 12:17:15;;;;;;;0.60;0.60;;;;;12.00;94511.00;;;;5051380;28;20302;-63
2023/04/12 12:19:43;;;;;;;1.23;1.13;;;;;12.70;94513.00;;;;5051255;28;20601;-63
2023/04/12 12:22:18;;;;;;;0.60;0.60;;;;;12.60;94515.00;;;;5051395;28;20218;-62
2023/04/12 12:24:50;;;;;;;0.63;0.63;;;;;12.40;94503.00;;;;5026847;28;20192;-63
2023/04/12 12:27:23;;;;;;;1.10;0.70;;;;;12.90;94508.00;;;;5031258;28;20246;-62
2023/04/12 12:29:53;;;;;;;0.87;0.87;;;;;12.90;94500.00;;;;5031244;28;20317;-63
2023/04/12 12:32:22;;;;;;;0.77;0.77;;;;;12.80;94519.00;;;;5013698;28;20211;-62
2023/04/12 12:34:54;;;;;;;0.60;0.60;;;;;12.70;94510.00;;;;5030848;28;20224;-62
2023/04/12 12:37:25;;;;;;;0.60;0.60;;;;;12.40;94516.00;;;;5031147;28;20213;-62